createdAt,value
2022-11-21T00:01:25.067Z,5.70
2022-11-21T00:03:52.215Z,5.80
2022-11-21T00:06:20.113Z,5.70
2022-11-21T00:08:47.370Z,5.70
2022-11-21T00:11:14.580Z,5.70
2022-11-21T00:13:42.377Z,5.70
2022-11-21T00:16:15.606Z,5.70
2022-11-21T00:18:44.101Z,5.70
2022-11-21T00:21:15.380Z,5.80
2022-11-21T00:23:44.273Z,5.70
2022-11-21T00:26:12.936Z,5.70
2022-11-21T00:28:40.437Z,5.60
2022-11-21T00:31:07.805Z,5.60
2022-11-21T00:33:36.861Z,5.70
2022-11-21T00:36:08.748Z,5.60
2022-11-21T00:38:36.502Z,5.60
2022-11-21T00:41:03.553Z,5.70
2022-11-21T00:43:30.427Z,5.70
2022-11-21T00:45:58.655Z,5.70
2022-11-21T00:48:25.611Z,5.70
2022-11-21T00:50:52.660Z,5.70
2022-11-21T00:53:19.585Z,5.70
2022-11-21T00:55:46.480Z,5.70
2022-11-21T00:58:13.418Z,5.70
2022-11-21T01:00:40.554Z,5.80
2022-11-21T01:03:07.562Z,5.80
2022-11-21T01:05:34.512Z,5.80
2022-11-21T01:08:01.481Z,5.80
2022-11-21T01:10:28.409Z,5.90
2022-11-21T01:12:55.354Z,5.90
2022-11-21T01:15:22.291Z,5.80
2022-11-21T01:17:49.302Z,5.80
2022-11-21T01:20:16.301Z,5.80
2022-11-21T01:22:43.290Z,5.80
2022-11-21T01:25:10.295Z,5.60
2022-11-21T01:27:37.214Z,5.60
2022-11-21T01:30:04.721Z,5.60
2022-11-21T01:32:31.694Z,5.60
2022-11-21T01:34:58.689Z,5.50
2022-11-21T01:37:25.709Z,5.50
2022-11-21T01:39:52.684Z,5.50
2022-11-21T01:42:19.608Z,5.60
2022-11-21T01:44:51.194Z,5.60
2022-11-21T01:47:18.240Z,5.60
2022-11-21T01:49:47.129Z,5.60
2022-11-21T01:52:29.619Z,5.60
2022-11-21T01:55:08.097Z,5.60
2022-11-21T01:57:48.214Z,5.50
2022-11-21T02:00:21.970Z,5.50
2022-11-21T02:03:00.783Z,5.40
2022-11-21T02:05:31.535Z,5.40
2022-11-21T02:08:09.480Z,5.40
2022-11-21T02:10:40.377Z,5.30
2022-11-21T02:13:07.978Z,5.20
2022-11-21T02:15:34.914Z,5.10
2022-11-21T02:18:01.872Z,5.10
2022-11-21T02:20:29.765Z,4.90
2022-11-21T02:23:26.360Z,5.00
2022-11-21T02:25:54.235Z,5.00
2022-11-21T02:28:23.670Z,4.90
2022-11-21T02:30:50.829Z,4.90
2022-11-21T02:33:17.822Z,4.90
2022-11-21T02:35:44.889Z,4.90
2022-11-21T02:38:21.415Z,4.90
2022-11-21T02:41:18.562Z,4.90
2022-11-21T02:43:51.458Z,4.90
2022-11-21T02:46:18.570Z,4.90
2022-11-21T02:48:46.639Z,4.90
2022-11-21T02:51:13.536Z,5.00
2022-11-21T02:53:40.557Z,5.00
2022-11-21T02:56:07.600Z,5.00
2022-11-21T02:58:34.849Z,5.10
2022-11-21T03:01:01.855Z,5.10
2022-11-21T03:03:28.879Z,5.10
2022-11-21T03:05:56.760Z,5.20
2022-11-21T03:08:23.933Z,5.10
2022-11-21T03:10:50.916Z,5.00
2022-11-21T03:13:17.856Z,5.00
2022-11-21T03:15:44.763Z,5.00
2022-11-21T03:18:11.672Z,5.00
2022-11-21T03:20:38.688Z,5.00
2022-11-21T03:23:05.666Z,5.00
2022-11-21T03:25:32.716Z,4.90
2022-11-21T03:27:59.614Z,4.90
2022-11-21T03:30:27.754Z,4.90
2022-11-21T03:32:58.560Z,4.80
2022-11-21T03:35:25.983Z,4.90
2022-11-21T03:37:53.086Z,4.90
2022-11-21T03:40:20.259Z,5.00
2022-11-21T03:42:47.229Z,4.90
2022-11-21T03:45:14.252Z,4.90
2022-11-21T03:47:41.477Z,4.90
2022-11-21T03:50:08.795Z,4.90
2022-11-21T03:52:35.774Z,4.90
2022-11-21T03:55:02.711Z,4.90
2022-11-21T03:57:29.643Z,4.80
2022-11-21T03:59:56.664Z,4.80
2022-11-21T04:02:23.698Z,4.90
2022-11-21T04:04:50.652Z,4.80
2022-11-21T04:07:17.598Z,4.90
2022-11-21T04:09:44.531Z,5.00
2022-11-21T04:12:11.488Z,5.00
2022-11-21T04:14:38.513Z,5.00
2022-11-21T04:17:05.738Z,5.10
2022-11-21T04:19:32.657Z,5.10
2022-11-21T04:22:02.519Z,5.10
2022-11-21T04:24:29.688Z,5.10
2022-11-21T04:26:56.951Z,5.10
2022-11-21T04:29:24.031Z,5.10
2022-11-21T04:31:50.969Z,5.20
2022-11-21T04:34:17.890Z,5.20
2022-11-21T04:36:44.861Z,5.20
2022-11-21T04:39:11.845Z,5.20
2022-11-21T04:41:38.752Z,5.20
2022-11-21T04:44:05.966Z,5.20
2022-11-21T04:46:32.976Z,5.20
2022-11-21T04:48:59.919Z,5.20
2022-11-21T04:51:26.815Z,5.20
2022-11-21T04:53:53.795Z,5.20
2022-11-21T04:56:20.737Z,5.20
2022-11-21T04:58:47.693Z,5.10
2022-11-21T05:01:14.609Z,5.10
2022-11-21T05:03:41.632Z,5.10
2022-11-21T05:06:08.650Z,5.10
2022-11-21T05:08:35.643Z,5.20
2022-11-21T05:11:20.974Z,5.20
2022-11-21T05:13:47.891Z,5.20
2022-11-21T05:16:14.850Z,5.20
2022-11-21T05:18:41.790Z,5.30
2022-11-21T05:21:08.752Z,5.30
2022-11-21T05:23:35.684Z,5.30
2022-11-21T05:26:02.650Z,5.30
2022-11-21T05:28:29.577Z,5.20
2022-11-21T05:30:56.527Z,5.20
2022-11-21T05:33:23.476Z,5.20
2022-11-21T05:35:50.459Z,5.20
2022-11-21T05:38:17.391Z,5.30
2022-11-21T05:40:44.372Z,5.30
2022-11-21T05:43:31.161Z,5.30
2022-11-21T05:45:58.334Z,5.30
2022-11-21T05:48:25.319Z,5.40
2022-11-21T05:50:52.400Z,5.40
2022-11-21T05:53:20.665Z,5.40
2022-11-21T05:55:47.976Z,5.50
2022-11-21T05:58:15.172Z,5.60
2022-11-21T06:00:42.333Z,5.60
2022-11-21T06:03:30.911Z,5.50
2022-11-21T06:06:10.638Z,5.50
2022-11-21T06:08:47.439Z,5.50
2022-11-21T06:11:16.818Z,5.50
2022-11-21T06:13:44.491Z,5.50
2022-11-21T06:16:17.138Z,5.50
2022-11-21T06:18:47.590Z,5.50
2022-11-21T06:21:18.403Z,5.60
2022-11-21T06:23:46.367Z,5.50
2022-11-21T06:26:16.539Z,5.50
2022-11-21T06:28:45.582Z,5.50
2022-11-21T06:31:16.638Z,5.50
2022-11-21T06:33:44.635Z,5.60
2022-11-21T06:36:14.871Z,5.60
2022-11-21T06:38:43.485Z,5.70
2022-11-21T06:41:17.101Z,5.60
2022-11-21T06:43:44.784Z,5.60
2022-11-21T06:46:13.631Z,5.60
2022-11-21T06:48:41.653Z,5.60
2022-11-21T06:51:20.043Z,5.60
2022-11-21T06:53:48.648Z,5.60
2022-11-21T06:56:15.988Z,5.70
2022-11-21T06:58:42.943Z,5.70
2022-11-21T07:01:10.879Z,5.60
2022-11-21T07:03:37.889Z,5.70
2022-11-21T07:06:05.816Z,5.70
2022-11-21T07:08:36.027Z,5.60
2022-11-21T07:11:25.269Z,5.70
2022-11-21T07:13:53.244Z,5.70
2022-11-21T07:16:20.181Z,5.70
2022-11-21T07:18:47.120Z,5.60
2022-11-21T07:21:14.532Z,5.70
2022-11-21T07:23:41.573Z,5.70
2022-11-21T07:26:10.719Z,5.70
2022-11-21T07:28:38.075Z,5.70
2022-11-21T07:31:11.726Z,5.70
2022-11-21T07:33:40.139Z,5.60
2022-11-21T07:36:07.289Z,5.60
2022-11-21T07:38:34.417Z,5.80
2022-11-21T07:41:01.437Z,6.10
2022-11-21T07:43:28.324Z,6.40
2022-11-21T07:45:56.462Z,6.50
2022-11-21T07:48:23.419Z,6.60
2022-11-21T07:50:50.510Z,6.50
2022-11-21T07:53:17.454Z,6.30
2022-11-21T07:55:44.509Z,6.30
2022-11-21T07:58:15.723Z,6.30
2022-11-21T08:00:43.307Z,6.10
2022-11-21T08:03:12.381Z,6.20
2022-11-21T08:05:43.429Z,6.10
2022-11-21T08:08:12.870Z,6.20
2022-11-21T08:10:45.461Z,6.30
2022-11-21T08:13:13.788Z,6.40
2022-11-21T08:15:41.377Z,6.40
2022-11-21T08:18:19.175Z,6.50
2022-11-21T08:20:46.589Z,6.50
2022-11-21T08:23:13.831Z,6.40
2022-11-21T08:25:42.376Z,6.40
2022-11-21T08:28:11.851Z,6.30
2022-11-21T08:30:40.686Z,6.30
2022-11-21T08:33:08.432Z,6.40
2022-11-21T08:35:38.262Z,6.20
2022-11-21T08:38:05.744Z,6.20
2022-11-21T08:40:33.496Z,6.40
2022-11-21T08:43:07.677Z,6.70
2022-11-21T08:45:37.069Z,6.80
2022-11-21T08:48:12.542Z,7.10
2022-11-21T08:50:39.702Z,7.10
2022-11-21T08:53:06.643Z,7.30
2022-11-21T08:55:33.737Z,7.10
2022-11-21T08:58:00.723Z,7.20
2022-11-21T17:28:59.681Z,5.20
2022-11-21T17:31:27.521Z,5.20
2022-11-21T17:33:57.136Z,5.30
2022-11-21T17:36:27.308Z,5.30
2022-11-21T17:38:54.812Z,5.40
2022-11-21T17:41:23.742Z,5.40
2022-11-21T17:43:55.931Z,5.50
2022-11-21T17:46:25.253Z,5.50
2022-11-21T17:48:57.166Z,5.50
2022-11-21T17:51:32.278Z,5.60
2022-11-21T17:54:00.732Z,5.60
2022-11-21T17:56:32.727Z,5.50
2022-11-21T17:59:00.033Z,5.40
2022-11-21T18:01:27.767Z,5.50
2022-11-21T18:04:00.383Z,5.40
2022-11-21T18:06:33.154Z,5.50
2022-11-21T18:09:00.115Z,5.60
2022-11-21T18:11:39.168Z,5.50
2022-11-21T18:14:08.644Z,5.50
2022-11-21T18:16:36.069Z,5.40
2022-11-21T18:19:03.178Z,5.40
2022-11-21T18:21:32.538Z,5.40
2022-11-21T18:24:00.249Z,5.50
2022-11-21T18:26:30.781Z,5.50
2022-11-21T18:31:50.247Z,5.50
2022-11-21T18:34:17.194Z,5.40
2022-11-21T18:36:44.264Z,5.40
2022-11-21T18:39:15.295Z,5.50
2022-11-21T18:41:43.170Z,5.60
2022-11-21T18:44:11.998Z,5.60
2022-11-21T18:46:40.582Z,5.50
2022-11-21T18:49:08.461Z,5.50
2022-11-21T18:51:36.843Z,5.40
2022-11-21T18:54:08.048Z,5.40
2022-11-21T18:56:37.436Z,5.40
2022-11-21T18:59:08.236Z,5.50
2022-11-21T19:01:37.585Z,5.50
2022-11-21T19:04:05.316Z,5.50
2022-11-21T19:06:32.665Z,5.60
2022-11-21T19:08:59.900Z,5.60
2022-11-21T19:11:29.320Z,5.60
2022-11-21T19:13:57.904Z,5.70
2022-11-21T19:16:27.435Z,5.80
2022-11-21T19:21:42.811Z,5.80
2022-11-21T19:24:14.452Z,5.80
2022-11-21T19:26:42.140Z,5.80
2022-11-21T19:29:10.507Z,5.80
2022-11-21T19:31:44.100Z,5.80
2022-11-21T19:34:14.420Z,5.80
2022-11-21T19:36:42.233Z,5.80
2022-11-21T19:39:09.983Z,5.70
2022-11-21T19:41:37.220Z,5.80
2022-11-21T19:44:04.388Z,5.90
2022-11-21T19:46:38.111Z,5.90
2022-11-21T19:49:07.217Z,5.80
2022-11-21T19:51:40.524Z,5.80
2022-11-21T19:54:09.576Z,5.80
2022-11-21T19:56:37.126Z,5.70
2022-11-21T19:59:04.545Z,5.70
2022-11-21T20:01:34.308Z,5.70
2022-11-21T20:04:03.948Z,5.70
2022-11-21T20:06:42.237Z,5.60
2022-11-21T20:09:12.722Z,5.60
2022-11-21T20:11:42.202Z,5.70
2022-11-21T20:14:09.199Z,5.60
2022-11-21T20:16:40.035Z,5.60
2022-11-21T20:19:10.695Z,5.60
2022-11-21T20:21:38.713Z,5.70
2022-11-21T20:24:06.483Z,6.00
2022-11-21T20:26:34.244Z,6.10
2022-11-21T20:29:01.580Z,6.10
2022-11-21T20:31:35.177Z,6.10
2022-11-21T20:34:08.574Z,6.10
2022-11-21T20:36:36.769Z,6.20
2022-11-21T20:39:15.575Z,6.10
2022-11-21T20:41:42.720Z,6.10
2022-11-21T20:47:07.253Z,6.20
2022-11-21T20:49:35.250Z,6.50
2022-11-21T20:53:43.948Z,6.60
2022-11-21T20:54:49.518Z,6.40
2022-11-21T20:57:16.484Z,6.60
2022-11-21T20:59:43.892Z,6.60
2022-11-21T21:02:12.321Z,6.70
2022-11-21T21:04:39.719Z,6.70
2022-11-21T21:07:06.717Z,6.70
2022-11-21T21:09:33.696Z,6.80
2022-11-21T21:12:00.597Z,6.80
2022-11-21T21:14:27.531Z,6.80
2022-11-21T21:16:54.509Z,6.90
2022-11-21T21:19:21.882Z,6.90
2022-11-21T21:21:48.942Z,7.00
2022-11-21T21:24:16.285Z,7.00
2022-11-21T21:26:46.511Z,7.00
2022-11-21T21:29:20.724Z,7.10
2022-11-21T21:31:51.710Z,7.00
2022-11-21T21:34:21.348Z,7.00
2022-11-21T21:36:48.867Z,7.00
2022-11-21T21:39:15.963Z,6.90
2022-11-21T21:41:46.046Z,6.90
2022-11-21T21:44:13.942Z,6.80
2022-11-21T21:46:40.960Z,6.80
2022-11-21T21:49:08.006Z,6.80
2022-11-21T21:51:37.102Z,6.70
2022-11-21T21:54:04.664Z,6.80
2022-11-21T21:56:31.860Z,6.70
2022-11-21T21:58:59.756Z,6.70
2022-11-21T22:01:32.059Z,6.70
2022-11-21T22:04:03.023Z,6.70
2022-11-21T22:06:33.042Z,6.80
2022-11-21T22:09:00.270Z,6.80
2022-11-21T22:11:31.399Z,6.80
2022-11-21T22:14:01.913Z,6.70
2022-11-21T22:16:29.783Z,6.70
2022-11-21T22:18:57.439Z,6.70
2022-11-21T22:21:34.302Z,6.70
2022-11-21T22:26:51.903Z,6.60
2022-11-21T22:29:18.935Z,6.70
2022-11-21T22:31:45.906Z,6.70
2022-11-21T22:34:16.062Z,6.60
2022-11-21T22:36:43.409Z,6.70
2022-11-21T22:39:10.472Z,6.60
2022-11-21T22:41:37.439Z,6.70
2022-11-21T22:44:04.654Z,6.70
2022-11-21T22:46:32.149Z,6.60
2022-11-21T22:48:59.387Z,6.70
2022-11-21T22:51:29.517Z,6.70
2022-11-21T22:53:57.218Z,6.70
2022-11-21T22:56:24.954Z,6.60
2022-11-21T22:58:52.675Z,6.60
2022-11-21T23:01:22.499Z,6.50
2022-11-21T23:03:49.951Z,6.50
2022-11-21T23:06:21.320Z,6.60
2022-11-21T23:08:48.968Z,6.60
2022-11-21T23:11:26.033Z,6.60
2022-11-21T23:13:54.290Z,6.60
2022-11-21T23:16:21.824Z,6.60
2022-11-21T23:18:52.270Z,6.50
2022-11-21T23:21:19.262Z,6.50
2022-11-21T23:23:46.297Z,6.50
2022-11-21T23:26:13.307Z,6.50
2022-11-21T23:28:40.276Z,6.50
2022-11-21T23:31:07.220Z,6.50
2022-11-21T23:33:34.142Z,6.50
2022-11-21T23:36:01.175Z,6.50
2022-11-21T23:38:28.193Z,6.60
2022-11-21T23:40:55.284Z,6.50
2022-11-21T23:43:22.238Z,6.30
2022-11-21T23:45:53.610Z,6.10
2022-11-21T23:48:21.897Z,5.90
2022-11-21T23:50:51.298Z,5.80
2022-11-21T23:53:19.533Z,5.60
2022-11-21T23:55:47.371Z,5.60
2022-11-21T23:58:14.593Z,5.60
